sensor_id;sensor_type;location;lat;lon;timestamp;temperature;humidity
19829;DHT22;10075;50.924;4.396;2023-05-10T00:01:00;14.20;99.90
19829;DHT22;10075;50.924;4.396;2023-05-10T00:03:28;14.20;99.90
19829;DHT22;10075;50.924;4.396;2023-05-10T00:05:55;14.20;99.90
19829;DHT22;10075;50.924;4.396;2023-05-10T00:08:22;14.30;99.90
19829;DHT22;10075;50.924;4.396;2023-05-10T00:10:50;14.30;99.90
19829;DHT22;10075;50.924;4.396;2023-05-10T00:13:17;14.30;99.90
19829;DHT22;10075;50.924;4.396;2023-05-10T00:15:44;14.30;99.90
19829;DHT22;10075;50.924;4.396;2023-05-10T00:18:11;14.20;99.90
19829;DHT22;10075;50.924;4.396;2023-05-10T00:20:38;14.20;99.90
19829;DHT22;10075;50.924;4.396;2023-05-10T00:23:05;14.20;99.90
19829;DHT22;10075;50.924;4.396;2023-05-10T00:25:32;14.20;99.90
19829;DHT22;10075;50.924;4.396;2023-05-10T00:28:00;14.20;99.90
19829;DHT22;10075;50.924;4.396;2023-05-10T00:30:28;14.20;99.90
19829;DHT22;10075;50.924;4.396;2023-05-10T00:32:55;14.20;99.90
19829;DHT22;10075;50.924;4.396;2023-05-10T00:35:22;14.20;99.90
19829;DHT22;10075;50.924;4.396;2023-05-10T00:37:49;14.20;99.90
19829;DHT22;10075;50.924;4.396;2023-05-10T00:40:16;14.20;99.90
19829;DHT22;10075;50.924;4.396;2023-05-10T00:42:43;14.20;99.90
19829;DHT22;10075;50.924;4.396;2023-05-10T00:45:11;14.30;99.90
19829;DHT22;10075;50.924;4.396;2023-05-10T00:47:38;14.30;99.90
19829;DHT22;10075;50.924;4.396;2023-05-10T00:50:06;14.30;99.90
19829;DHT22;10075;50.924;4.396;2023-05-10T00:52:34;14.30;99.90
19829;DHT22;10075;50.924;4.396;2023-05-10T00:55:01;14.40;99.90
19829;DHT22;10075;50.924;4.396;2023-05-10T00:57:29;14.40;99.90
19829;DHT22;10075;50.924;4.396;2023-05-10T00:59:57;14.40;99.90
19829;DHT22;10075;50.924;4.396;2023-05-10T01:02:25;14.40;99.90
19829;DHT22;10075;50.924;4.396;2023-05-10T01:04:52;14.50;99.90
19829;DHT22;10075;50.924;4.396;2023-05-10T01:07:19;14.40;99.90
19829;DHT22;10075;50.924;4.396;2023-05-10T01:09:47;14.30;99.90
19829;DHT22;10075;50.924;4.396;2023-05-10T01:12:14;14.30;99.90
19829;DHT22;10075;50.924;4.396;2023-05-10T01:14:41;14.30;99.90
19829;DHT22;10075;50.924;4.396;2023-05-10T01:17:09;14.40;99.90
19829;DHT22;10075;50.924;4.396;2023-05-10T01:19:38;14.30;99.90
19829;DHT22;10075;50.924;4.396;2023-05-10T01:22:15;14.20;99.90
19829;DHT22;10075;50.924;4.396;2023-05-10T01:24:59;14.20;99.90
19829;DHT22;10075;50.924;4.396;2023-05-10T01:27:54;14.30;99.90
19829;DHT22;10075;50.924;4.396;2023-05-10T01:30:43;14.20;99.90
19829;DHT22;10075;50.924;4.396;2023-05-10T01:33:18;14.30;99.90
19829;DHT22;10075;50.924;4.396;2023-05-10T01:35:54;14.30;99.90
19829;DHT22;10075;50.924;4.396;2023-05-10T01:38:29;14.30;99.90
19829;DHT22;10075;50.924;4.396;2023-05-10T01:41:05;14.20;99.90
19829;DHT22;10075;50.924;4.396;2023-05-10T01:43:41;14.20;99.90
19829;DHT22;10075;50.924;4.396;2023-05-10T01:46:16;14.20;99.90
19829;DHT22;10075;50.924;4.396;2023-05-10T01:48:48;14.20;99.90
19829;DHT22;10075;50.924;4.396;2023-05-10T01:51:22;14.10;99.90
19829;DHT22;10075;50.924;4.396;2023-05-10T01:53:53;14.10;99.90
19829;DHT22;10075;50.924;4.396;2023-05-10T01:56:24;14.10;99.90
19829;DHT22;10075;50.924;4.396;2023-05-10T01:58:53;14.10;99.90
19829;DHT22;10075;50.924;4.396;2023-05-10T02:01:21;14.00;99.90
19829;DHT22;10075;50.924;4.396;2023-05-10T02:03:50;14.00;99.90
19829;DHT22;10075;50.924;4.396;2023-05-10T02:06:20;14.00;99.90
19829;DHT22;10075;50.924;4.396;2023-05-10T02:08:49;14.00;99.90
19829;DHT22;10075;50.924;4.396;2023-05-10T02:11:17;14.00;99.90
19829;DHT22;10075;50.924;4.396;2023-05-10T02:13:48;14.00;99.90
19829;DHT22;10075;50.924;4.396;2023-05-10T02:16:16;14.00;99.90
19829;DHT22;10075;50.924;4.396;2023-05-10T02:18:44;14.00;99.90
19829;DHT22;10075;50.924;4.396;2023-05-10T02:21:14;14.00;99.90
19829;DHT22;10075;50.924;4.396;2023-05-10T02:23:43;14.00;99.90
19829;DHT22;10075;50.924;4.396;2023-05-10T02:26:12;13.90;99.90
19829;DHT22;10075;50.924;4.396;2023-05-10T02:28:41;13.90;99.90
19829;DHT22;10075;50.924;4.396;2023-05-10T02:31:10;13.90;99.90
19829;DHT22;10075;50.924;4.396;2023-05-10T02:33:38;14.00;99.90
19829;DHT22;10075;50.924;4.396;2023-05-10T02:36:07;13.90;99.90
19829;DHT22;10075;50.924;4.396;2023-05-10T02:38:37;13.90;99.90
19829;DHT22;10075;50.924;4.396;2023-05-10T02:41:05;13.90;99.90
19829;DHT22;10075;50.924;4.396;2023-05-10T02:43:35;13.90;99.90
19829;DHT22;10075;50.924;4.396;2023-05-10T02:46:02;13.90;99.90
19829;DHT22;10075;50.924;4.396;2023-05-10T02:48:29;13.90;99.90
19829;DHT22;10075;50.924;4.396;2023-05-10T02:51:00;13.90;99.90
19829;DHT22;10075;50.924;4.396;2023-05-10T02:53:31;13.90;99.90
19829;DHT22;10075;50.924;4.396;2023-05-10T02:56:05;13.90;99.90
19829;DHT22;10075;50.924;4.396;2023-05-10T02:58:35;13.90;99.90
19829;DHT22;10075;50.924;4.396;2023-05-10T03:01:02;14.00;99.90
19829;DHT22;10075;50.924;4.396;2023-05-10T03:03:29;14.00;99.90
19829;DHT22;10075;50.924;4.396;2023-05-10T03:05:57;14.00;99.90
19829;DHT22;10075;50.924;4.396;2023-05-10T03:08:25;14.00;99.90
19829;DHT22;10075;50.924;4.396;2023-05-10T03:11:08;13.90;99.90
19829;DHT22;10075;50.924;4.396;2023-05-10T03:13:44;13.90;99.90
19829;DHT22;10075;50.924;4.396;2023-05-10T03:16:16;13.90;99.90
19829;DHT22;10075;50.924;4.396;2023-05-10T03:18:54;13.90;99.90
19829;DHT22;10075;50.924;4.396;2023-05-10T03:21:22;13.70;99.90
19829;DHT22;10075;50.924;4.396;2023-05-10T03:23:57;13.60;99.90
19829;DHT22;10075;50.924;4.396;2023-05-10T03:26:27;13.60;99.90
19829;DHT22;10075;50.924;4.396;2023-05-10T03:28:56;13.50;99.90
19829;DHT22;10075;50.924;4.396;2023-05-10T03:31:24;13.50;99.90
19829;DHT22;10075;50.924;4.396;2023-05-10T03:33:52;13.50;99.90
19829;DHT22;10075;50.924;4.396;2023-05-10T03:36:19;13.50;99.90
19829;DHT22;10075;50.924;4.396;2023-05-10T03:38:46;13.50;99.90
19829;DHT22;10075;50.924;4.396;2023-05-10T03:41:13;13.50;99.90
19829;DHT22;10075;50.924;4.396;2023-05-10T03:43:42;13.50;99.90
19829;DHT22;10075;50.924;4.396;2023-05-10T03:46:09;13.50;99.90
19829;DHT22;10075;50.924;4.396;2023-05-10T03:48:36;13.50;99.90
19829;DHT22;10075;50.924;4.396;2023-05-10T03:51:03;13.60;99.90
19829;DHT22;10075;50.924;4.396;2023-05-10T03:53:30;13.50;99.90
19829;DHT22;10075;50.924;4.396;2023-05-10T03:55:57;13.50;99.90
19829;DHT22;10075;50.924;4.396;2023-05-10T03:58:24;13.50;99.90
19829;DHT22;10075;50.924;4.396;2023-05-10T04:00:53;13.50;99.90
19829;DHT22;10075;50.924;4.396;2023-05-10T04:03:20;13.60;99.90
19829;DHT22;10075;50.924;4.396;2023-05-10T04:05:48;13.60;99.90
19829;DHT22;10075;50.924;4.396;2023-05-10T04:08:15;13.60;99.90
19829;DHT22;10075;50.924;4.396;2023-05-10T04:10:42;13.60;99.90
19829;DHT22;10075;50.924;4.396;2023-05-10T04:13:09;13.70;99.90
19829;DHT22;10075;50.924;4.396;2023-05-10T04:15:36;13.70;99.90
19829;DHT22;10075;50.924;4.396;2023-05-10T04:18:05;13.70;99.90
19829;DHT22;10075;50.924;4.396;2023-05-10T04:20:32;13.70;99.90
19829;DHT22;10075;50.924;4.396;2023-05-10T04:22:59;13.70;99.90
19829;DHT22;10075;50.924;4.396;2023-05-10T04:25:26;13.70;99.90
19829;DHT22;10075;50.924;4.396;2023-05-10T04:27:53;13.70;99.90
19829;DHT22;10075;50.924;4.396;2023-05-10T04:30:21;13.70;99.90
19829;DHT22;10075;50.924;4.396;2023-05-10T04:32:48;13.70;99.90
19829;DHT22;10075;50.924;4.396;2023-05-10T04:35:16;13.80;99.90
19829;DHT22;10075;50.924;4.396;2023-05-10T04:37:43;13.80;99.90
19829;DHT22;10075;50.924;4.396;2023-05-10T04:40:11;13.90;99.90
19829;DHT22;10075;50.924;4.396;2023-05-10T04:42:40;13.90;99.90
19829;DHT22;10075;50.924;4.396;2023-05-10T04:45:08;13.80;99.90
19829;DHT22;10075;50.924;4.396;2023-05-10T04:47:36;13.80;99.90
19829;DHT22;10075;50.924;4.396;2023-05-10T04:50:04;13.80;99.90
19829;DHT22;10075;50.924;4.396;2023-05-10T04:52:33;13.90;99.90
19829;DHT22;10075;50.924;4.396;2023-05-10T04:55:00;13.90;99.90
19829;DHT22;10075;50.924;4.396;2023-05-10T04:57:27;13.90;99.90
19829;DHT22;10075;50.924;4.396;2023-05-10T04:59:54;13.90;99.90
19829;DHT22;10075;50.924;4.396;2023-05-10T05:02:21;13.80;99.90
19829;DHT22;10075;50.924;4.396;2023-05-10T05:04:49;13.80;99.90
19829;DHT22;10075;50.924;4.396;2023-05-10T05:07:16;13.80;99.90
19829;DHT22;10075;50.924;4.396;2023-05-10T05:09:44;13.80;99.90
19829;DHT22;10075;50.924;4.396;2023-05-10T05:12:11;13.80;99.90
19829;DHT22;10075;50.924;4.396;2023-05-10T05:14:39;13.80;99.90
19829;DHT22;10075;50.924;4.396;2023-05-10T05:17:06;13.90;99.90
19829;DHT22;10075;50.924;4.396;2023-05-10T05:19:34;14.10;99.90
19829;DHT22;10075;50.924;4.396;2023-05-10T05:22:01;14.20;99.90
19829;DHT22;10075;50.924;4.396;2023-05-10T05:24:28;14.30;99.90
19829;DHT22;10075;50.924;4.396;2023-05-10T05:26:56;14.20;99.90
19829;DHT22;10075;50.924;4.396;2023-05-10T05:29:23;14.30;99.90
19829;DHT22;10075;50.924;4.396;2023-05-10T05:31:50;14.30;99.90
19829;DHT22;10075;50.924;4.396;2023-05-10T05:34:17;14.50;99.90
19829;DHT22;10075;50.924;4.396;2023-05-10T05:36:46;14.60;99.90
19829;DHT22;10075;50.924;4.396;2023-05-10T05:39:13;14.70;99.90
19829;DHT22;10075;50.924;4.396;2023-05-10T05:41:40;14.80;99.90
19829;DHT22;10075;50.924;4.396;2023-05-10T05:44:09;14.80;99.90
19829;DHT22;10075;50.924;4.396;2023-05-10T05:46:36;14.60;99.90
19829;DHT22;10075;50.924;4.396;2023-05-10T05:49:03;14.60;99.90
19829;DHT22;10075;50.924;4.396;2023-05-10T05:51:30;14.60;99.90
19829;DHT22;10075;50.924;4.396;2023-05-10T05:53:57;14.70;99.90
19829;DHT22;10075;50.924;4.396;2023-05-10T05:56:24;14.80;99.90
19829;DHT22;10075;50.924;4.396;2023-05-10T05:58:52;14.90;99.90
19829;DHT22;10075;50.924;4.396;2023-05-10T06:01:20;15.00;99.90
19829;DHT22;10075;50.924;4.396;2023-05-10T06:03:47;15.10;99.90
19829;DHT22;10075;50.924;4.396;2023-05-10T06:06:14;15.30;99.90
19829;DHT22;10075;50.924;4.396;2023-05-10T06:08:41;15.40;99.90
19829;DHT22;10075;50.924;4.396;2023-05-10T06:11:08;15.30;99.90
19829;DHT22;10075;50.924;4.396;2023-05-10T06:13:35;15.40;99.90
19829;DHT22;10075;50.924;4.396;2023-05-10T06:16:02;15.50;99.90
19829;DHT22;10075;50.924;4.396;2023-05-10T06:18:31;15.80;99.90
19829;DHT22;10075;50.924;4.396;2023-05-10T06:20:58;16.00;99.90
19829;DHT22;10075;50.924;4.396;2023-05-10T06:23:25;15.80;99.90
19829;DHT22;10075;50.924;4.396;2023-05-10T06:25:52;15.70;99.90
19829;DHT22;10075;50.924;4.396;2023-05-10T06:28:19;15.80;99.90
19829;DHT22;10075;50.924;4.396;2023-05-10T06:30:46;15.60;99.90
19829;DHT22;10075;50.924;4.396;2023-05-10T06:33:13;15.80;99.90
19829;DHT22;10075;50.924;4.396;2023-05-10T06:35:42;15.80;99.90
19829;DHT22;10075;50.924;4.396;2023-05-10T06:38:10;16.00;99.90
19829;DHT22;10075;50.924;4.396;2023-05-10T06:40:37;16.20;99.90
19829;DHT22;10075;50.924;4.396;2023-05-10T06:43:07;16.30;99.90
19829;DHT22;10075;50.924;4.396;2023-05-10T06:45:34;16.30;99.90
19829;DHT22;10075;50.924;4.396;2023-05-10T06:48:01;15.80;99.90
19829;DHT22;10075;50.924;4.396;2023-05-10T06:50:28;15.70;99.90
19829;DHT22;10075;50.924;4.396;2023-05-10T06:52:57;15.60;99.90
19829;DHT22;10075;50.924;4.396;2023-05-10T06:55:24;15.70;99.90
19829;DHT22;10075;50.924;4.396;2023-05-10T06:57:52;15.70;99.90
19829;DHT22;10075;50.924;4.396;2023-05-10T07:00:19;15.60;99.90
19829;DHT22;10075;50.924;4.396;2023-05-10T07:02:46;15.60;99.90
19829;DHT22;10075;50.924;4.396;2023-05-10T07:05:14;15.70;99.90
19829;DHT22;10075;50.924;4.396;2023-05-10T07:07:41;15.70;99.90
19829;DHT22;10075;50.924;4.396;2023-05-10T07:10:10;15.80;99.90
19829;DHT22;10075;50.924;4.396;2023-05-10T07:12:37;15.60;99.90
19829;DHT22;10075;50.924;4.396;2023-05-10T07:15:04;15.50;99.90
19829;DHT22;10075;50.924;4.396;2023-05-10T07:17:32;15.80;99.90
19829;DHT22;10075;50.924;4.396;2023-05-10T07:20:00;15.90;99.90
19829;DHT22;10075;50.924;4.396;2023-05-10T07:22:27;16.00;99.90
19829;DHT22;10075;50.924;4.396;2023-05-10T07:24:55;15.80;99.90
19829;DHT22;10075;50.924;4.396;2023-05-10T07:27:23;15.50;99.90
19829;DHT22;10075;50.924;4.396;2023-05-10T07:29:50;15.30;99.90
19829;DHT22;10075;50.924;4.396;2023-05-10T07:32:17;15.40;99.90
19829;DHT22;10075;50.924;4.396;2023-05-10T07:34:44;15.40;99.90
19829;DHT22;10075;50.924;4.396;2023-05-10T07:37:11;15.50;99.90
19829;DHT22;10075;50.924;4.396;2023-05-10T07:39:38;15.50;99.90
19829;DHT22;10075;50.924;4.396;2023-05-10T07:42:05;15.50;99.90
19829;DHT22;10075;50.924;4.396;2023-05-10T07:44:34;15.60;99.90
19829;DHT22;10075;50.924;4.396;2023-05-10T07:47:01;15.50;99.90
19829;DHT22;10075;50.924;4.396;2023-05-10T07:49:28;15.40;99.90
19829;DHT22;10075;50.924;4.396;2023-05-10T07:51:55;15.60;99.90
19829;DHT22;10075;50.924;4.396;2023-05-10T07:54:22;15.90;99.90
19829;DHT22;10075;50.924;4.396;2023-05-10T07:56:49;16.00;99.90
19829;DHT22;10075;50.924;4.396;2023-05-10T07:59:17;16.10;99.90
19829;DHT22;10075;50.924;4.396;2023-05-10T08:01:45;16.20;99.90
19829;DHT22;10075;50.924;4.396;2023-05-10T08:04:12;16.30;99.90
19829;DHT22;10075;50.924;4.396;2023-05-10T08:06:39;16.40;99.90
19829;DHT22;10075;50.924;4.396;2023-05-10T08:09:07;16.80;99.90
19829;DHT22;10075;50.924;4.396;2023-05-10T08:11:34;17.10;99.90
19829;DHT22;10075;50.924;4.396;2023-05-10T08:14:01;17.40;99.90
19829;DHT22;10075;50.924;4.396;2023-05-10T08:16:28;17.70;99.90
19829;DHT22;10075;50.924;4.396;2023-05-10T08:18:56;17.80;99.90
19829;DHT22;10075;50.924;4.396;2023-05-10T08:21:23;17.90;99.90
19829;DHT22;10075;50.924;4.396;2023-05-10T08:23:51;17.90;99.90
19829;DHT22;10075;50.924;4.396;2023-05-10T08:26:18;17.70;99.90
19829;DHT22;10075;50.924;4.396;2023-05-10T08:28:46;17.40;99.90
19829;DHT22;10075;50.924;4.396;2023-05-10T08:31:13;17.30;99.90
19829;DHT22;10075;50.924;4.396;2023-05-10T08:33:40;17.10;99.90
19829;DHT22;10075;50.924;4.396;2023-05-10T08:36:09;16.90;99.90
19829;DHT22;10075;50.924;4.396;2023-05-10T08:41:03;16.70;99.90
19829;DHT22;10075;50.924;4.396;2023-05-10T08:43:31;16.50;99.90
19829;DHT22;10075;50.924;4.396;2023-05-10T08:46:00;16.30;99.90
19829;DHT22;10075;50.924;4.396;2023-05-10T08:48:29;16.40;99.90
19829;DHT22;10075;50.924;4.396;2023-05-10T08:50:58;16.60;99.90
19829;DHT22;10075;50.924;4.396;2023-05-10T08:53:29;16.60;99.90
19829;DHT22;10075;50.924;4.396;2023-05-10T08:55:57;16.80;99.90
19829;DHT22;10075;50.924;4.396;2023-05-10T08:58:26;17.00;99.90
19829;DHT22;10075;50.924;4.396;2023-05-10T09:00:53;17.30;99.90
19829;DHT22;10075;50.924;4.396;2023-05-10T09:03:20;17.40;99.90
19829;DHT22;10075;50.924;4.396;2023-05-10T09:05:48;17.50;99.90
19829;DHT22;10075;50.924;4.396;2023-05-10T09:08:15;17.50;99.90
19829;DHT22;10075;50.924;4.396;2023-05-10T09:10:44;17.40;99.90
19829;DHT22;10075;50.924;4.396;2023-05-10T09:13:14;17.30;99.90
19829;DHT22;10075;50.924;4.396;2023-05-10T09:15:44;17.40;99.90
19829;DHT22;10075;50.924;4.396;2023-05-10T09:18:11;17.40;99.90
19829;DHT22;10075;50.924;4.396;2023-05-10T09:20:38;17.40;99.90
19829;DHT22;10075;50.924;4.396;2023-05-10T09:23:05;17.50;99.90
19829;DHT22;10075;50.924;4.396;2023-05-10T09:25:32;17.70;99.90
19829;DHT22;10075;50.924;4.396;2023-05-10T09:28:01;17.80;99.90
19829;DHT22;10075;50.924;4.396;2023-05-10T09:30:30;17.80;99.90
19829;DHT22;10075;50.924;4.396;2023-05-10T09:32:58;17.90;99.90
19829;DHT22;10075;50.924;4.396;2023-05-10T09:35:27;18.00;99.90
19829;DHT22;10075;50.924;4.396;2023-05-10T09:37:56;18.30;99.90
19829;DHT22;10075;50.924;4.396;2023-05-10T09:40:24;18.10;99.90
19829;DHT22;10075;50.924;4.396;2023-05-10T09:42:54;18.10;99.90
19829;DHT22;10075;50.924;4.396;2023-05-10T09:45:23;17.90;99.90
19829;DHT22;10075;50.924;4.396;2023-05-10T09:47:52;17.30;99.90
19829;DHT22;10075;50.924;4.396;2023-05-10T09:50:20;17.00;99.90
19829;DHT22;10075;50.924;4.396;2023-05-10T09:52:49;16.90;99.90
19829;DHT22;10075;50.924;4.396;2023-05-10T09:55:17;16.80;99.90
19829;DHT22;10075;50.924;4.396;2023-05-10T09:57:44;16.90;99.90
19829;DHT22;10075;50.924;4.396;2023-05-10T10:00:17;17.10;99.90
19829;DHT22;10075;50.924;4.396;2023-05-10T10:02:47;17.30;99.90
19829;DHT22;10075;50.924;4.396;2023-05-10T10:05:14;17.40;99.90
19829;DHT22;10075;50.924;4.396;2023-05-10T10:07:41;17.40;99.90
19829;DHT22;10075;50.924;4.396;2023-05-10T10:10:09;17.50;99.90
19829;DHT22;10075;50.924;4.396;2023-05-10T10:12:40;17.40;99.90
19829;DHT22;10075;50.924;4.396;2023-05-10T10:15:08;17.40;99.90
19829;DHT22;10075;50.924;4.396;2023-05-10T10:17:36;17.40;99.90
19829;DHT22;10075;50.924;4.396;2023-05-10T10:20:07;17.40;99.90
19829;DHT22;10075;50.924;4.396;2023-05-10T10:22:34;17.10;99.90
19829;DHT22;10075;50.924;4.396;2023-05-10T10:25:01;17.00;99.90
19829;DHT22;10075;50.924;4.396;2023-05-10T10:27:35;17.10;99.90
19829;DHT22;10075;50.924;4.396;2023-05-10T10:30:21;17.20;99.90
19829;DHT22;10075;50.924;4.396;2023-05-10T10:33:04;17.50;99.90
19829;DHT22;10075;50.924;4.396;2023-05-10T10:35:36;17.80;99.90
19829;DHT22;10075;50.924;4.396;2023-05-10T10:38:03;17.90;99.90
19829;DHT22;10075;50.924;4.396;2023-05-10T10:40:32;18.10;99.90
19829;DHT22;10075;50.924;4.396;2023-05-10T10:43:21;18.30;99.90
19829;DHT22;10075;50.924;4.396;2023-05-10T10:46:11;18.50;99.90
19829;DHT22;10075;50.924;4.396;2023-05-10T10:48:39;18.60;99.90
19829;DHT22;10075;50.924;4.396;2023-05-10T10:51:08;18.60;99.90
19829;DHT22;10075;50.924;4.396;2023-05-10T10:53:37;18.50;99.90
19829;DHT22;10075;50.924;4.396;2023-05-10T10:56:09;18.40;99.90
19829;DHT22;10075;50.924;4.396;2023-05-10T10:58:38;18.40;99.90
19829;DHT22;10075;50.924;4.396;2023-05-10T11:01:13;18.20;99.90
19829;DHT22;10075;50.924;4.396;2023-05-10T11:03:41;18.20;99.90
19829;DHT22;10075;50.924;4.396;2023-05-10T11:06:09;18.20;99.90
19829;DHT22;10075;50.924;4.396;2023-05-10T11:08:42;18.30;99.90
19829;DHT22;10075;50.924;4.396;2023-05-10T11:11:14;18.30;99.90
19829;DHT22;10075;50.924;4.396;2023-05-10T11:13:43;18.40;99.90
19829;DHT22;10075;50.924;4.396;2023-05-10T11:16:15;18.50;99.90
19829;DHT22;10075;50.924;4.396;2023-05-10T11:18:53;18.50;99.90
19829;DHT22;10075;50.924;4.396;2023-05-10T11:21:22;18.70;99.90
19829;DHT22;10075;50.924;4.396;2023-05-10T11:23:51;18.90;99.90
19829;DHT22;10075;50.924;4.396;2023-05-10T11:26:22;18.90;99.90
19829;DHT22;10075;50.924;4.396;2023-05-10T11:28:52;19.00;99.90
19829;DHT22;10075;50.924;4.396;2023-05-10T11:31:20;19.00;99.90
19829;DHT22;10075;50.924;4.396;2023-05-10T11:33:48;18.80;99.90
19829;DHT22;10075;50.924;4.396;2023-05-10T11:36:17;18.70;99.90
19829;DHT22;10075;50.924;4.396;2023-05-10T11:38:47;18.80;99.90
19829;DHT22;10075;50.924;4.396;2023-05-10T11:41:15;18.90;99.90
19829;DHT22;10075;50.924;4.396;2023-05-10T11:43:46;19.00;99.90
19829;DHT22;10075;50.924;4.396;2023-05-10T11:46:14;19.20;99.90
19829;DHT22;10075;50.924;4.396;2023-05-10T11:48:42;19.30;99.90
19829;DHT22;10075;50.924;4.396;2023-05-10T11:51:10;19.20;99.90
19829;DHT22;10075;50.924;4.396;2023-05-10T11:53:38;19.40;99.90
19829;DHT22;10075;50.924;4.396;2023-05-10T11:56:08;19.50;99.90
19829;DHT22;10075;50.924;4.396;2023-05-10T11:58:35;19.40;99.90
19829;DHT22;10075;50.924;4.396;2023-05-10T12:01:04;19.40;99.90
19829;DHT22;10075;50.924;4.396;2023-05-10T12:03:32;19.30;99.90
19829;DHT22;10075;50.924;4.396;2023-05-10T12:05:59;19.30;99.90
19829;DHT22;10075;50.924;4.396;2023-05-10T12:08:28;19.20;99.90
19829;DHT22;10075;50.924;4.396;2023-05-10T12:11:06;19.10;99.90
19829;DHT22;10075;50.924;4.396;2023-05-10T12:13:37;19.00;99.90
19829;DHT22;10075;50.924;4.396;2023-05-10T12:16:13;19.00;99.90
19829;DHT22;10075;50.924;4.396;2023-05-10T12:18:40;19.10;99.90
19829;DHT22;10075;50.924;4.396;2023-05-10T12:21:09;19.10;99.90
19829;DHT22;10075;50.924;4.396;2023-05-10T12:23:37;18.90;99.90
19829;DHT22;10075;50.924;4.396;2023-05-10T12:26:07;18.80;99.90
19829;DHT22;10075;50.924;4.396;2023-05-10T12:28:35;18.60;99.90
19829;DHT22;10075;50.924;4.396;2023-05-10T12:31:02;18.30;99.90
19829;DHT22;10075;50.924;4.396;2023-05-10T12:33:36;18.10;99.90
19829;DHT22;10075;50.924;4.396;2023-05-10T12:36:05;18.00;99.90
19829;DHT22;10075;50.924;4.396;2023-05-10T12:38:33;18.00;99.90
19829;DHT22;10075;50.924;4.396;2023-05-10T12:41:02;18.20;99.90
19829;DHT22;10075;50.924;4.396;2023-05-10T12:43:31;18.30;99.90
19829;DHT22;10075;50.924;4.396;2023-05-10T12:45:58;18.40;99.90
19829;DHT22;10075;50.924;4.396;2023-05-10T12:48:25;18.50;99.90
19829;DHT22;10075;50.924;4.396;2023-05-10T12:50:54;18.70;99.90
19829;DHT22;10075;50.924;4.396;2023-05-10T12:53:21;18.70;99.90
19829;DHT22;10075;50.924;4.396;2023-05-10T12:55:48;18.70;99.90
19829;DHT22;10075;50.924;4.396;2023-05-10T12:58:15;19.00;99.90
19829;DHT22;10075;50.924;4.396;2023-05-10T13:00:43;19.20;99.90
19829;DHT22;10075;50.924;4.396;2023-05-10T13:03:10;19.10;99.90
19829;DHT22;10075;50.924;4.396;2023-05-10T13:05:38;18.60;99.90
19829;DHT22;10075;50.924;4.396;2023-05-10T13:08:05;18.30;99.90
19829;DHT22;10075;50.924;4.396;2023-05-10T13:10:32;18.50;99.90
19829;DHT22;10075;50.924;4.396;2023-05-10T13:12:59;18.90;99.90
19829;DHT22;10075;50.924;4.396;2023-05-10T13:15:26;19.20;99.90
19829;DHT22;10075;50.924;4.396;2023-05-10T13:17:55;19.10;99.90
19829;DHT22;10075;50.924;4.396;2023-05-10T13:20:22;19.40;99.90
19829;DHT22;10075;50.924;4.396;2023-05-10T13:22:50;19.90;99.90
19829;DHT22;10075;50.924;4.396;2023-05-10T13:25:17;20.30;99.90
19829;DHT22;10075;50.924;4.396;2023-05-10T13:27:44;20.50;99.90
19829;DHT22;10075;50.924;4.396;2023-05-10T13:30:11;20.60;99.90
19829;DHT22;10075;50.924;4.396;2023-05-10T13:32:38;20.90;99.90
19829;DHT22;10075;50.924;4.396;2023-05-10T13:35:08;21.30;99.90
19829;DHT22;10075;50.924;4.396;2023-05-10T13:37:35;21.40;99.90
19829;DHT22;10075;50.924;4.396;2023-05-10T13:40:03;21.70;99.90
19829;DHT22;10075;50.924;4.396;2023-05-10T13:42:31;21.70;99.90
19829;DHT22;10075;50.924;4.396;2023-05-10T13:44:59;21.90;99.90
19829;DHT22;10075;50.924;4.396;2023-05-10T13:47:26;22.20;99.90
19829;DHT22;10075;50.924;4.396;2023-05-10T13:49:53;22.60;99.90
19829;DHT22;10075;50.924;4.396;2023-05-10T13:52:22;22.30;99.90
19829;DHT22;10075;50.924;4.396;2023-05-10T13:54:49;21.50;99.90
19829;DHT22;10075;50.924;4.396;2023-05-10T13:57:18;21.60;99.90
19829;DHT22;10075;50.924;4.396;2023-05-10T13:59:45;22.00;99.90
19829;DHT22;10075;50.924;4.396;2023-05-10T14:02:11;22.20;99.90
19829;DHT22;10075;50.924;4.396;2023-05-10T14:04:38;21.80;99.90
19829;DHT22;10075;50.924;4.396;2023-05-10T14:07:05;21.30;99.90
19829;DHT22;10075;50.924;4.396;2023-05-10T14:09:34;21.00;99.90
19829;DHT22;10075;50.924;4.396;2023-05-10T14:12:01;20.20;99.90
19829;DHT22;10075;50.924;4.396;2023-05-10T14:14:28;19.80;99.90
19829;DHT22;10075;50.924;4.396;2023-05-10T14:16:55;19.30;99.90
19829;DHT22;10075;50.924;4.396;2023-05-10T14:19:22;19.30;99.90
19829;DHT22;10075;50.924;4.396;2023-05-10T14:21:49;19.50;99.90
19829;DHT22;10075;50.924;4.396;2023-05-10T14:24:17;19.70;99.90
19829;DHT22;10075;50.924;4.396;2023-05-10T14:26:45;19.90;99.90
19829;DHT22;10075;50.924;4.396;2023-05-10T14:29:12;19.90;99.90
19829;DHT22;10075;50.924;4.396;2023-05-10T14:31:40;20.00;99.90
19829;DHT22;10075;50.924;4.396;2023-05-10T14:34:07;20.10;99.90
19829;DHT22;10075;50.924;4.396;2023-05-10T14:36:34;20.10;99.90
19829;DHT22;10075;50.924;4.396;2023-05-10T14:39:01;19.70;99.90
19829;DHT22;10075;50.924;4.396;2023-05-10T14:41:28;19.60;99.90
19829;DHT22;10075;50.924;4.396;2023-05-10T14:43:57;19.50;99.90
19829;DHT22;10075;50.924;4.396;2023-05-10T14:46:24;18.40;99.90
19829;DHT22;10075;50.924;4.396;2023-05-10T14:48:51;17.80;99.90
19829;DHT22;10075;50.924;4.396;2023-05-10T14:51:18;17.50;99.90
19829;DHT22;10075;50.924;4.396;2023-05-10T14:53:47;17.40;99.90
19829;DHT22;10075;50.924;4.396;2023-05-10T14:56:15;17.40;99.90
19829;DHT22;10075;50.924;4.396;2023-05-10T14:58:42;17.10;99.90
19829;DHT22;10075;50.924;4.396;2023-05-10T15:01:11;16.90;99.90
19829;DHT22;10075;50.924;4.396;2023-05-10T15:03:38;17.00;99.90
19829;DHT22;10075;50.924;4.396;2023-05-10T15:06:05;16.80;99.90
19829;DHT22;10075;50.924;4.396;2023-05-10T15:08:32;16.70;99.90
19829;DHT22;10075;50.924;4.396;2023-05-10T15:10:59;16.90;99.90
19829;DHT22;10075;50.924;4.396;2023-05-10T15:13:27;16.90;99.90
19829;DHT22;10075;50.924;4.396;2023-05-10T15:15:54;16.30;99.90
19829;DHT22;10075;50.924;4.396;2023-05-10T15:18:22;15.90;99.90
19829;DHT22;10075;50.924;4.396;2023-05-10T15:20:49;15.70;99.90
19829;DHT22;10075;50.924;4.396;2023-05-10T15:23:16;15.70;99.90
19829;DHT22;10075;50.924;4.396;2023-05-10T15:25:43;15.50;99.90
19829;DHT22;10075;50.924;4.396;2023-05-10T15:28:10;15.40;99.90
19829;DHT22;10075;50.924;4.396;2023-05-10T15:30:37;15.40;99.90
19829;DHT22;10075;50.924;4.396;2023-05-10T15:33:04;15.30;99.90
19829;DHT22;10075;50.924;4.396;2023-05-10T15:35:34;15.20;99.90
19829;DHT22;10075;50.924;4.396;2023-05-10T15:38:03;15.10;99.90
19829;DHT22;10075;50.924;4.396;2023-05-10T15:40:31;15.00;99.90